createdAt,value
2022-12-16T00:00:05.832Z,80.20
2022-12-16T00:02:33.056Z,74.00
2022-12-16T00:04:59.627Z,77.47
2022-12-16T00:07:26.167Z,79.15
2022-12-16T00:09:52.626Z,75.05
2022-12-16T00:12:19.245Z,79.90
2022-12-16T00:14:45.765Z,83.18
2022-12-16T00:17:12.328Z,80.13
2022-12-16T00:19:38.865Z,82.95
2022-12-16T00:22:05.587Z,80.90
2022-12-16T00:24:32.076Z,76.50
2022-12-16T00:26:58.609Z,82.32
2022-12-16T00:29:25.152Z,73.30
2022-12-16T00:31:51.693Z,72.53
2022-12-16T00:34:19.260Z,76.60
2022-12-16T00:36:45.807Z,81.90
2022-12-16T00:39:12.392Z,89.35
2022-12-16T00:41:38.900Z,73.15
2022-12-16T00:44:05.499Z,79.55
2022-12-16T00:46:32.097Z,82.82
2022-12-16T00:48:58.650Z,81.55
2022-12-16T00:51:25.198Z,81.15
2022-12-16T00:53:51.815Z,84.95
2022-12-16T00:56:18.646Z,73.25
2022-12-16T00:58:45.107Z,75.22
2022-12-16T01:01:12.225Z,80.90
2022-12-16T01:03:39.483Z,67.88
2022-12-16T01:06:15.873Z,75.70
2022-12-16T01:08:49.297Z,80.65
2022-12-16T01:11:17.261Z,69.45
2022-12-16T01:13:44.563Z,73.90
2022-12-16T01:16:11.267Z,75.88
2022-12-16T01:18:38.066Z,83.72
2022-12-16T01:21:06.707Z,72.70
2022-12-16T01:23:34.192Z,77.78
2022-12-16T01:26:02.037Z,71.35
2022-12-16T01:28:29.206Z,75.13
2022-12-16T01:31:01.734Z,69.82
2022-12-16T01:33:30.549Z,75.83
2022-12-16T01:36:03.470Z,74.97
2022-12-16T01:38:30.141Z,84.60
2022-12-16T01:40:56.928Z,69.05
2022-12-16T01:43:29.708Z,69.50
2022-12-16T01:46:12.117Z,76.38
2022-12-16T01:48:51.055Z,64.88
2022-12-16T01:51:32.530Z,71.60
2022-12-16T01:54:05.740Z,65.35
2022-12-16T01:56:34.833Z,71.13
2022-12-16T01:59:02.869Z,66.15
2022-12-16T02:01:29.879Z,65.50
2022-12-16T02:04:01.723Z,60.85
2022-12-16T02:06:29.655Z,61.78
2022-12-16T02:08:58.496Z,65.22
2022-12-16T02:11:43.619Z,72.22
2022-12-16T02:14:29.498Z,77.80
2022-12-16T02:17:16.732Z,86.38
2022-12-16T02:19:58.431Z,77.25
2022-12-16T02:22:40.711Z,78.15
2022-12-16T02:25:38.065Z,73.50
2022-12-16T02:28:13.054Z,60.05
2022-12-16T02:31:27.255Z,67.78
2022-12-16T02:34:10.300Z,63.25
2022-12-16T02:36:57.283Z,77.85
2022-12-16T02:39:37.073Z,74.65
2022-12-16T02:42:06.409Z,75.22
2022-12-16T02:44:47.407Z,74.60
2022-12-16T02:47:14.211Z,70.90
2022-12-16T02:49:47.663Z,77.00
2022-12-16T02:52:15.443Z,76.70
2022-12-16T02:54:43.060Z,70.82
2022-12-16T02:57:37.546Z,77.65
2022-12-16T03:00:08.432Z,75.22
2022-12-16T03:03:08.705Z,75.10
2022-12-16T03:05:48.882Z,78.30
2022-12-16T03:08:29.988Z,83.05
2022-12-16T03:11:04.032Z,76.78
2022-12-16T03:13:44.797Z,74.38
2022-12-16T03:16:14.464Z,76.90
2022-12-16T03:18:46.270Z,81.93
2022-12-16T03:21:14.604Z,79.28
2022-12-16T03:23:47.495Z,78.07
2022-12-16T03:26:21.640Z,80.22
2022-12-16T03:28:58.886Z,80.25
2022-12-16T03:31:47.225Z,78.93
2022-12-16T03:34:25.304Z,84.57
2022-12-16T03:36:59.941Z,75.60
2022-12-16T03:39:27.450Z,85.50
2022-12-16T03:41:55.878Z,80.45
2022-12-16T03:44:25.212Z,88.25
2022-12-16T03:46:52.528Z,86.88
2022-12-16T03:49:19.123Z,80.00
2022-12-16T03:51:45.607Z,83.45
2022-12-16T03:54:12.090Z,79.18
2022-12-16T03:56:38.681Z,77.57
2022-12-16T03:59:05.186Z,79.53
2022-12-16T04:01:31.897Z,84.80
2022-12-16T04:03:58.513Z,89.63
2022-12-16T04:06:25.109Z,82.13
2022-12-16T04:08:51.648Z,84.85
2022-12-16T04:11:36.492Z,89.15
2022-12-16T04:14:21.286Z,90.05
2022-12-16T04:17:07.255Z,86.72
2022-12-16T04:19:55.320Z,83.10
2022-12-16T04:22:55.040Z,79.20
2022-12-16T04:25:28.963Z,86.65
2022-12-16T04:27:55.497Z,87.47
2022-12-16T04:30:22.144Z,85.18
2022-12-16T04:33:31.453Z,88.18
2022-12-16T04:36:16.736Z,80.63
2022-12-16T04:39:01.643Z,79.55
2022-12-16T04:41:46.768Z,81.13
2022-12-16T04:44:32.386Z,86.45
2022-12-16T04:47:17.893Z,88.18
2022-12-16T04:50:03.040Z,91.72
2022-12-16T04:52:48.106Z,87.68
2022-12-16T04:55:33.287Z,83.53
2022-12-16T04:58:21.092Z,76.97
2022-12-16T05:01:06.942Z,74.22
2022-12-16T05:03:53.193Z,77.72
2022-12-16T05:06:39.068Z,73.78
2022-12-16T05:09:24.564Z,78.28
2022-12-16T05:12:09.755Z,72.80
2022-12-16T05:14:55.009Z,76.32
2022-12-16T05:17:40.518Z,72.75
2022-12-16T05:20:26.485Z,81.65
2022-12-16T05:23:14.777Z,75.47
2022-12-16T05:26:00.110Z,68.78
2022-12-16T05:28:45.320Z,79.88
2022-12-16T05:31:30.254Z,84.00
2022-12-16T05:34:15.556Z,74.85
2022-12-16T05:37:00.375Z,76.53
2022-12-16T05:39:45.310Z,82.18
2022-12-16T05:42:30.643Z,84.90
2022-12-16T05:45:15.786Z,75.00
2022-12-16T05:48:00.836Z,81.47
2022-12-16T05:50:45.766Z,90.43
2022-12-16T05:53:31.633Z,84.50
2022-12-16T05:56:17.159Z,78.32
2022-12-16T05:59:02.175Z,86.43
2022-12-16T06:01:47.785Z,91.22
2022-12-16T06:04:32.989Z,76.80
2022-12-16T06:07:18.231Z,87.72
2022-12-16T06:10:03.159Z,75.07
2022-12-16T06:12:48.711Z,80.05
2022-12-16T06:15:34.083Z,87.43
2022-12-16T06:18:19.137Z,77.38
2022-12-16T06:21:04.147Z,74.75
2022-12-16T06:23:49.338Z,74.90
2022-12-16T06:26:35.011Z,87.75
2022-12-16T06:29:19.947Z,80.40
2022-12-16T06:32:05.109Z,89.50
2022-12-16T06:34:50.404Z,83.63
2022-12-16T06:37:35.391Z,78.72
2022-12-16T06:40:21.024Z,83.93
2022-12-16T06:43:06.435Z,82.63
2022-12-16T06:45:51.671Z,83.25
2022-12-16T06:48:36.925Z,88.43
2022-12-16T06:51:22.169Z,79.43
2022-12-16T06:54:07.390Z,84.00
2022-12-16T06:56:52.271Z,73.65
2022-12-16T06:59:37.361Z,81.03
2022-12-16T07:02:22.310Z,81.75
2022-12-16T07:05:07.683Z,86.25
2022-12-16T07:07:52.574Z,76.70
2022-12-16T07:10:37.915Z,69.68
2022-12-16T07:13:22.680Z,81.55
2022-12-16T07:16:07.711Z,76.10
2022-12-16T07:18:52.963Z,73.28
2022-12-16T07:21:37.851Z,77.57
2022-12-16T07:24:23.284Z,77.45
2022-12-16T07:27:08.347Z,72.75
2022-12-16T07:29:53.839Z,78.43
2022-12-16T07:32:38.819Z,79.38
2022-12-16T07:35:24.032Z,70.93
2022-12-16T07:38:09.614Z,75.70
2022-12-16T07:40:54.767Z,75.38
2022-12-16T07:43:40.926Z,78.05
2022-12-16T07:46:25.790Z,73.10
2022-12-16T07:49:18.433Z,77.07
2022-12-16T07:52:03.920Z,73.00
2022-12-16T07:54:49.108Z,70.43
2022-12-16T07:57:34.332Z,78.55
2022-12-16T08:00:19.423Z,75.90
2022-12-16T08:03:04.602Z,71.68
2022-12-16T08:05:49.830Z,70.38
2022-12-16T08:08:34.592Z,73.38
2022-12-16T08:11:19.875Z,72.00
2022-12-16T08:14:04.752Z,81.15
2022-12-16T08:16:49.799Z,74.95
2022-12-16T08:19:35.128Z,68.57
2022-12-16T08:22:20.071Z,68.72
2022-12-16T08:25:04.959Z,65.68
2022-12-16T08:27:50.025Z,79.03
2022-12-16T08:30:35.406Z,70.00
2022-12-16T08:33:20.631Z,70.65
2022-12-16T08:36:06.727Z,75.13
2022-12-16T08:38:52.012Z,65.75
2022-12-16T08:41:38.348Z,70.55
2022-12-16T08:44:23.823Z,70.80
2022-12-16T08:47:08.911Z,70.75
2022-12-16T08:49:57.681Z,70.65
2022-12-16T08:52:46.876Z,67.10
2022-12-16T08:55:32.199Z,62.15
2022-12-16T08:58:17.417Z,60.33
2022-12-16T09:01:06.977Z,62.63
2022-12-16T09:03:52.964Z,60.28
2022-12-16T09:06:40.635Z,61.40
2022-12-16T09:09:26.666Z,65.65
2022-12-16T09:12:11.533Z,54.33
2022-12-16T09:14:56.742Z,60.95
2022-12-16T09:17:42.040Z,59.50
2022-12-16T09:20:27.628Z,58.58
2022-12-16T09:23:12.903Z,58.88
2022-12-16T09:25:58.270Z,56.55
2022-12-16T09:28:43.447Z,56.42
2022-12-16T09:31:28.869Z,54.75
2022-12-16T09:34:14.096Z,55.88
2022-12-16T09:36:59.408Z,58.55
2022-12-16T09:39:44.560Z,61.90
2022-12-16T09:42:46.888Z,65.20
2022-12-16T09:45:50.974Z,58.60
2022-12-16T09:48:49.220Z,67.15
2022-12-16T09:51:35.811Z,62.95
2022-12-16T09:54:22.208Z,66.15
2022-12-16T09:57:07.589Z,63.47
2022-12-16T09:59:57.257Z,63.65
2022-12-16T10:02:44.143Z,66.38
2022-12-16T10:06:19.024Z,63.70
2022-12-16T10:09:14.138Z,65.60
2022-12-16T10:12:39.617Z,63.10
2022-12-16T10:15:50.008Z,64.90
2022-12-16T10:18:49.881Z,65.75
2022-12-16T10:21:42.435Z,71.43
2022-12-16T10:24:37.106Z,64.53
2022-12-16T10:27:33.472Z,66.35
2022-12-16T10:30:20.010Z,66.43
2022-12-16T10:33:07.714Z,58.65
2022-12-16T10:35:57.585Z,62.85
2022-12-16T10:38:53.667Z,60.97
2022-12-16T10:41:41.371Z,60.22
2022-12-16T10:45:13.136Z,62.33
2022-12-16T10:47:58.829Z,62.03
2022-12-16T10:50:44.134Z,62.83
2022-12-16T10:53:39.212Z,59.67
2022-12-16T10:56:45.086Z,56.47
2022-12-16T10:59:30.765Z,58.00
2022-12-16T11:02:21.770Z,60.13
2022-12-16T11:05:08.032Z,67.78
2022-12-16T11:08:02.942Z,62.28
2022-12-16T11:10:58.820Z,56.88
2022-12-16T11:13:55.396Z,64.60
2022-12-16T11:16:46.209Z,60.10
2022-12-16T11:19:40.398Z,55.05
2022-12-16T11:22:38.398Z,57.70
2022-12-16T11:25:29.386Z,58.85
2022-12-16T11:28:26.642Z,59.90
2022-12-16T11:31:13.791Z,61.25
2022-12-16T11:33:59.321Z,64.05
2022-12-16T11:36:45.677Z,63.22
2022-12-16T11:39:34.807Z,60.22
2022-12-16T11:42:20.847Z,65.78
2022-12-16T11:45:12.216Z,59.50
2022-12-16T11:48:14.958Z,58.60
2022-12-16T11:51:11.871Z,55.90
2022-12-16T11:54:06.727Z,54.53
2022-12-16T11:56:56.143Z,52.17
2022-12-16T11:59:44.231Z,53.88
2022-12-16T12:03:02.075Z,57.33
2022-12-16T12:06:17.917Z,53.80
2022-12-16T12:09:10.075Z,46.30
2022-12-16T12:12:10.002Z,52.78
2022-12-16T12:15:15.599Z,50.60
2022-12-16T12:18:13.806Z,54.13
2022-12-16T12:21:12.019Z,59.47
2022-12-16T12:24:15.103Z,54.03
2022-12-16T12:27:09.316Z,54.55
2022-12-16T12:33:01.510Z,54.55
2022-12-16T12:36:38.448Z,49.80
2022-12-16T12:39:42.755Z,49.65
2022-12-16T12:42:54.966Z,46.60
2022-12-16T12:46:00.682Z,52.65
2022-12-16T12:49:07.963Z,51.13
2022-12-16T12:52:10.578Z,50.67
2022-12-16T12:55:04.503Z,49.65
2022-12-16T12:57:53.492Z,56.95
2022-12-16T13:00:42.818Z,50.75
2022-12-16T13:03:37.799Z,49.53
2022-12-16T13:06:23.902Z,57.20
2022-12-16T13:09:09.301Z,49.08
2022-12-16T13:11:55.965Z,48.65
2022-12-16T13:14:50.428Z,50.17
2022-12-16T13:17:37.718Z,51.42
2022-12-16T13:20:47.064Z,52.22
2022-12-16T13:23:51.356Z,48.90
2022-12-16T13:26:38.622Z,47.20
2022-12-16T13:29:30.089Z,43.40
2022-12-16T13:32:21.454Z,48.67
2022-12-16T13:35:18.280Z,46.08
2022-12-16T13:38:17.832Z,57.00
2022-12-16T13:41:12.052Z,40.58
2022-12-16T13:47:06.314Z,42.75
2022-12-16T13:49:54.273Z,42.92
2022-12-16T13:53:05.306Z,36.58
2022-12-16T13:56:15.967Z,41.80
2022-12-16T13:59:06.288Z,37.75
2022-12-16T14:02:11.343Z,40.25
2022-12-16T14:05:02.484Z,37.55
2022-12-16T14:07:51.112Z,38.58
2022-12-16T14:10:45.151Z,40.63
2022-12-16T14:13:42.324Z,41.83
2022-12-16T14:16:39.507Z,41.17
2022-12-16T14:19:44.438Z,38.63
2022-12-16T14:22:54.179Z,36.28
2022-12-16T14:25:40.884Z,39.05
2022-12-16T14:28:51.856Z,38.13
2022-12-16T14:31:41.350Z,39.20
2022-12-16T14:34:41.654Z,38.47
2022-12-16T14:37:38.561Z,35.60
2022-12-16T14:40:38.750Z,34.95
2022-12-16T14:43:32.055Z,36.08
2022-12-16T14:46:17.806Z,38.55
2022-12-16T14:49:07.099Z,35.08
2022-12-16T14:51:57.236Z,36.83
2022-12-16T14:54:45.316Z,41.92
2022-12-16T14:57:37.011Z,39.10
2022-12-16T15:00:28.353Z,37.90
2022-12-16T15:03:36.799Z,41.70
2022-12-16T15:06:25.545Z,44.33
2022-12-16T15:09:16.654Z,41.63
2022-12-16T15:12:03.134Z,42.97
2022-12-16T15:14:51.034Z,46.47
2022-12-16T15:17:42.867Z,40.95
2022-12-16T15:20:43.798Z,45.38
2022-12-16T15:23:42.797Z,49.63
2022-12-16T15:26:35.242Z,44.85
2022-12-16T15:29:20.698Z,45.45
2022-12-16T15:32:05.661Z,54.22
2022-12-16T15:35:04.232Z,44.58
2022-12-16T15:38:06.576Z,48.67
2022-12-16T15:40:53.066Z,44.40
2022-12-16T15:43:53.650Z,46.50
2022-12-16T15:47:03.871Z,47.60
2022-12-16T15:49:59.339Z,41.95
2022-12-16T15:52:48.875Z,40.38
2022-12-16T15:55:41.611Z,46.75
2022-12-16T15:58:40.306Z,42.85
2022-12-16T16:01:26.708Z,42.28
2022-12-16T16:04:14.423Z,47.85
2022-12-16T16:07:10.907Z,44.08
2022-12-16T16:09:57.891Z,48.25
2022-12-16T16:12:44.180Z,42.85
2022-12-16T16:15:32.454Z,49.47
2022-12-16T16:21:26.426Z,53.85
2022-12-16T16:24:11.434Z,51.72
2022-12-16T16:26:56.341Z,49.38
2022-12-16T16:29:41.607Z,56.70
2022-12-16T16:32:27.799Z,53.60
2022-12-16T16:35:13.106Z,54.75
2022-12-16T16:37:58.571Z,51.95
2022-12-16T16:40:51.659Z,49.38
2022-12-16T16:43:37.018Z,47.35
2022-12-16T16:46:33.489Z,52.22
2022-12-16T16:49:18.824Z,53.58
2022-12-16T16:52:04.069Z,46.50
2022-12-16T16:54:48.895Z,52.88
2022-12-16T16:57:34.397Z,41.97
2022-12-16T17:00:19.537Z,49.40
2022-12-16T17:03:04.995Z,49.30
2022-12-16T17:05:50.356Z,46.17
2022-12-16T17:08:35.181Z,50.22
2022-12-16T17:11:20.817Z,43.67
2022-12-16T17:14:05.953Z,45.55
2022-12-16T17:16:51.162Z,45.50
2022-12-16T17:19:36.620Z,51.58
2022-12-16T17:22:21.903Z,46.20
2022-12-16T17:25:06.949Z,47.47
2022-12-16T17:27:52.121Z,42.05
2022-12-16T17:30:46.485Z,45.92
2022-12-16T17:33:33.854Z,48.70
2022-12-16T17:36:19.883Z,42.53
2022-12-16T17:39:05.228Z,85.35
2022-12-16T17:41:52.271Z,40.50
2022-12-16T17:44:37.958Z,38.72
2022-12-16T17:47:23.296Z,40.97
2022-12-16T17:50:08.396Z,44.63
2022-12-16T17:52:53.568Z,38.42
2022-12-16T17:55:38.782Z,39.67
2022-12-16T17:58:23.686Z,45.15
2022-12-16T18:01:08.680Z,42.17
2022-12-16T18:03:54.196Z,42.78
2022-12-16T18:06:39.425Z,41.65
2022-12-16T18:09:24.696Z,40.55
2022-12-16T18:12:09.774Z,42.28
2022-12-16T18:14:56.787Z,40.45
2022-12-16T18:17:41.720Z,40.63
2022-12-16T18:20:27.507Z,50.55
2022-12-16T18:23:13.184Z,43.80
2022-12-16T18:25:58.475Z,43.10
2022-12-16T18:28:43.461Z,43.92
2022-12-16T18:31:29.065Z,45.80
2022-12-16T18:34:14.402Z,45.88
2022-12-16T18:36:59.844Z,48.25
2022-12-16T18:39:44.727Z,44.47
2022-12-16T18:42:31.174Z,36.25
2022-12-16T18:45:16.004Z,41.53
2022-12-16T18:48:00.963Z,39.03
2022-12-16T18:50:53.717Z,40.67
2022-12-16T18:53:41.792Z,49.20
2022-12-16T18:56:28.571Z,40.90
2022-12-16T18:59:14.335Z,43.72
2022-12-16T19:01:59.675Z,37.75
2022-12-16T19:04:44.874Z,36.25
2022-12-16T19:07:33.628Z,37.85
2022-12-16T19:10:19.235Z,38.88
2022-12-16T19:13:04.030Z,38.05
2022-12-16T19:15:49.201Z,41.35
2022-12-16T19:18:34.466Z,44.50
2022-12-16T19:21:19.835Z,39.55
2022-12-16T19:24:07.690Z,40.25
2022-12-16T19:26:52.992Z,41.03
2022-12-16T19:29:41.888Z,39.13
2022-12-16T19:32:26.870Z,40.30
2022-12-16T19:35:12.038Z,39.85
2022-12-16T19:37:57.328Z,38.80
2022-12-16T19:40:42.575Z,42.88
2022-12-16T19:43:27.678Z,45.00
2022-12-16T19:46:13.943Z,45.92
2022-12-16T19:48:59.115Z,48.60
2022-12-16T19:51:44.458Z,40.83
2022-12-16T19:54:29.411Z,38.97
2022-12-16T19:57:14.281Z,61.13
2022-12-16T19:59:59.036Z,43.88
2022-12-16T20:05:52.714Z,50.85
2022-12-16T20:08:38.550Z,73.82
2022-12-16T20:11:27.907Z,42.47
2022-12-16T20:14:14.844Z,44.28
2022-12-16T20:17:01.326Z,43.95
2022-12-16T20:19:46.260Z,50.60
2022-12-16T20:22:31.267Z,45.90
2022-12-16T20:25:16.636Z,49.95
2022-12-16T20:28:01.590Z,43.35
2022-12-16T20:30:46.809Z,42.00
2022-12-16T20:33:33.676Z,45.22
2022-12-16T20:36:21.318Z,43.28
2022-12-16T20:39:06.527Z,44.78
2022-12-16T20:41:51.754Z,54.83
2022-12-16T20:44:36.880Z,46.22
2022-12-16T20:47:22.018Z,55.03
2022-12-16T20:50:07.191Z,41.47
2022-12-16T20:52:52.028Z,44.33
2022-12-16T20:55:37.008Z,38.58
2022-12-16T20:58:22.340Z,41.38
2022-12-16T21:01:14.960Z,40.88
2022-12-16T21:03:59.951Z,41.78
2022-12-16T21:06:44.885Z,41.97
2022-12-16T21:09:29.907Z,40.40
2022-12-16T21:12:15.317Z,39.90
2022-12-16T21:15:00.369Z,40.03
2022-12-16T21:17:45.303Z,38.03
2022-12-16T21:20:30.927Z,38.50
2022-12-16T21:23:18.286Z,44.67
2022-12-16T21:26:03.517Z,44.20
2022-12-16T21:28:48.679Z,41.00
2022-12-16T21:31:34.026Z,39.33
2022-12-16T21:34:18.976Z,39.70
2022-12-16T21:37:04.038Z,42.25
2022-12-16T21:39:49.337Z,45.78
2022-12-16T21:42:36.736Z,41.90
2022-12-16T21:45:24.106Z,45.47
2022-12-16T21:48:12.935Z,39.17
2022-12-16T21:50:58.093Z,44.05
2022-12-16T21:53:57.186Z,45.33
2022-12-16T21:56:42.432Z,47.78
2022-12-16T21:59:27.515Z,41.55
2022-12-16T22:02:12.708Z,41.78
2022-12-16T22:04:57.848Z,43.13
2022-12-16T22:07:45.466Z,43.88
2022-12-16T22:10:31.113Z,41.88
2022-12-16T22:13:18.563Z,41.55
2022-12-16T22:16:16.468Z,43.95
2022-12-16T22:19:18.552Z,44.20
2022-12-16T22:22:05.872Z,44.50
2022-12-16T22:24:51.284Z,44.63
2022-12-16T22:27:38.960Z,46.00
2022-12-16T22:30:24.922Z,41.40
2022-12-16T22:33:10.152Z,43.53
2022-12-16T22:35:55.011Z,43.85
2022-12-16T22:38:40.454Z,46.25
2022-12-16T22:41:25.633Z,43.63
2022-12-16T22:44:10.421Z,44.00
2022-12-16T22:46:56.153Z,45.75
2022-12-16T22:49:41.493Z,43.80
2022-12-16T22:52:26.680Z,41.42
2022-12-16T22:55:11.494Z,44.25
2022-12-16T22:57:56.632Z,43.72
2022-12-16T23:00:58.268Z,44.15
2022-12-16T23:03:44.275Z,42.15
2022-12-16T23:06:29.989Z,43.80
2022-12-16T23:09:15.420Z,42.80
2022-12-16T23:12:00.904Z,39.53
2022-12-16T23:14:46.340Z,38.20
2022-12-16T23:17:32.015Z,39.00
2022-12-16T23:20:17.202Z,41.60
2022-12-16T23:23:02.158Z,42.22
2022-12-16T23:25:47.661Z,35.45
2022-12-16T23:28:32.915Z,41.10
2022-12-16T23:31:18.241Z,46.88
2022-12-16T23:34:03.362Z,56.78
2022-12-16T23:36:48.322Z,48.55
2022-12-16T23:39:33.595Z,41.58
2022-12-16T23:42:18.562Z,37.33
2022-12-16T23:45:03.765Z,41.92
2022-12-16T23:47:48.924Z,40.42
2022-12-16T23:50:34.150Z,39.83
2022-12-16T23:53:27.128Z,42.78
2022-12-16T23:56:18.139Z,38.25
2022-12-16T23:59:03.493Z,39.05
